sensor_id;sensor_type;location;lat;lon;timestamp;pressure;altitude;pressure_sealevel;temperature;humidity
49825;BME280;35714;55.708;37.478;2023-05-17T00:01:49;99986.69;;;15.28;38.45
49825;BME280;35714;55.708;37.478;2023-05-17T00:04:14;99967.19;;;15.19;38.63
49825;BME280;35714;55.708;37.478;2023-05-17T00:06:41;99982.91;;;15.29;38.62
49825;BME280;35714;55.708;37.478;2023-05-17T00:09:07;99991.59;;;15.26;38.39
49825;BME280;35714;55.708;37.478;2023-05-17T00:11:33;99981.72;;;15.25;38.59
49825;BME280;35714;55.708;37.478;2023-05-17T00:13:59;99988.84;;;15.26;39.11
49825;BME280;35714;55.708;37.478;2023-05-17T00:16:25;99983.66;;;15.24;38.85
49825;BME280;35714;55.708;37.478;2023-05-17T00:18:51;99985.00;;;15.22;38.86
49825;BME280;35714;55.708;37.478;2023-05-17T00:21:17;99987.72;;;15.22;38.95
49825;BME280;35714;55.708;37.478;2023-05-17T00:23:42;99983.84;;;15.18;38.88
49825;BME280;35714;55.708;37.478;2023-05-17T00:26:08;99988.22;;;15.19;39.16
49825;BME280;35714;55.708;37.478;2023-05-17T00:28:34;99995.34;;;15.20;38.91
49825;BME280;35714;55.708;37.478;2023-05-17T00:30:59;99997.50;;;15.18;39.00
49825;BME280;35714;55.708;37.478;2023-05-17T00:33:25;99991.72;;;15.14;38.74
49825;BME280;35714;55.708;37.478;2023-05-17T00:35:51;100004.03;;;15.16;38.80
49825;BME280;35714;55.708;37.478;2023-05-17T00:38:17;99991.88;;;15.07;38.93
49825;BME280;35714;55.708;37.478;2023-05-17T00:40:43;100003.47;;;15.14;39.05
49825;BME280;35714;55.708;37.478;2023-05-17T00:43:08;100004.28;;;15.15;38.93
49825;BME280;35714;55.708;37.478;2023-05-17T00:45:34;100001.72;;;15.08;39.01
49825;BME280;35714;55.708;37.478;2023-05-17T00:48:01;100009.41;;;15.11;39.16
49825;BME280;35714;55.708;37.478;2023-05-17T00:50:27;100006.13;;;15.09;39.16
49825;BME280;35714;55.708;37.478;2023-05-17T00:52:53;100007.44;;;15.07;39.23
49825;BME280;35714;55.708;37.478;2023-05-17T00:55:20;99986.09;;;14.87;39.27
49825;BME280;35714;55.708;37.478;2023-05-17T00:57:46;100007.13;;;15.03;39.26
49825;BME280;35714;55.708;37.478;2023-05-17T01:00:12;100005.97;;;14.99;39.43
49825;BME280;35714;55.708;37.478;2023-05-17T01:02:38;100015.31;;;15.03;39.62
49825;BME280;35714;55.708;37.478;2023-05-17T01:05:04;100012.00;;;15.01;39.52
49825;BME280;35714;55.708;37.478;2023-05-17T01:07:33;100013.09;;;15.00;39.20
49825;BME280;35714;55.708;37.478;2023-05-17T01:09:59;100025.06;;;14.99;39.53
49825;BME280;35714;55.708;37.478;2023-05-17T01:13:00;100028.88;;;14.98;39.59
49825;BME280;35714;55.708;37.478;2023-05-17T01:15:32;100024.69;;;14.90;39.69
49825;BME280;35714;55.708;37.478;2023-05-17T01:18:19;100030.38;;;14.89;39.69
49825;BME280;35714;55.708;37.478;2023-05-17T01:20:47;100024.75;;;14.78;39.94
49825;BME280;35714;55.708;37.478;2023-05-17T01:23:23;100030.47;;;14.77;40.12
49825;BME280;35714;55.708;37.478;2023-05-17T01:26:10;100031.78;;;14.74;40.06
49825;BME280;35714;55.708;37.478;2023-05-17T01:28:39;100040.97;;;14.68;40.21
49825;BME280;35714;55.708;37.478;2023-05-17T01:31:07;100045.84;;;14.66;40.41
49825;BME280;35714;55.708;37.478;2023-05-17T01:33:37;100040.88;;;14.63;40.62
49825;BME280;35714;55.708;37.478;2023-05-17T01:36:02;100044.69;;;14.62;40.74
49825;BME280;35714;55.708;37.478;2023-05-17T01:38:28;100041.34;;;14.60;40.82
49825;BME280;35714;55.708;37.478;2023-05-17T01:41:00;100039.69;;;14.59;40.95
49825;BME280;35714;55.708;37.478;2023-05-17T01:48:36;100036.34;;;14.57;41.08
49825;BME280;35714;55.708;37.478;2023-05-17T01:51:04;100046.81;;;14.60;41.08
49825;BME280;35714;55.708;37.478;2023-05-17T01:53:37;100047.88;;;14.59;41.32
49825;BME280;35714;55.708;37.478;2023-05-17T01:56:11;100045.63;;;14.56;41.31
49825;BME280;35714;55.708;37.478;2023-05-17T01:58:47;100031.31;;;14.49;41.31
49825;BME280;35714;55.708;37.478;2023-05-17T02:01:18;100039.69;;;14.59;41.42
49825;BME280;35714;55.708;37.478;2023-05-17T02:03:47;100047.66;;;14.60;41.46
49825;BME280;35714;55.708;37.478;2023-05-17T02:06:15;100040.19;;;14.56;41.32
49825;BME280;35714;55.708;37.478;2023-05-17T02:08:40;100048.94;;;14.58;41.38
49825;BME280;35714;55.708;37.478;2023-05-17T02:11:06;100037.94;;;14.53;41.52
49825;BME280;35714;55.708;37.478;2023-05-17T02:13:32;100052.28;;;14.60;41.42
49825;BME280;35714;55.708;37.478;2023-05-17T02:16:02;100046.69;;;14.67;41.29
49825;BME280;35714;55.708;37.478;2023-05-17T02:18:28;100044.19;;;14.65;41.22
49825;BME280;35714;55.708;37.478;2023-05-17T02:20:54;100048.16;;;14.74;41.12
49825;BME280;35714;55.708;37.478;2023-05-17T02:23:20;100055.84;;;14.77;41.11
49825;BME280;35714;55.708;37.478;2023-05-17T02:25:46;100048.00;;;14.81;41.10
49825;BME280;35714;55.708;37.478;2023-05-17T02:28:11;100054.13;;;14.88;40.81
49825;BME280;35714;55.708;37.478;2023-05-17T02:30:37;100043.28;;;14.93;40.81
49825;BME280;35714;55.708;37.478;2023-05-17T02:33:07;100060.56;;;14.99;40.69
49825;BME280;35714;55.708;37.478;2023-05-17T02:35:33;100057.59;;;15.01;40.52
49825;BME280;35714;55.708;37.478;2023-05-17T02:37:59;100052.44;;;15.04;40.50
49825;BME280;35714;55.708;37.478;2023-05-17T02:40:26;100044.38;;;15.09;40.24
49825;BME280;35714;55.708;37.478;2023-05-17T02:42:51;100054.28;;;15.15;40.39
49825;BME280;35714;55.708;37.478;2023-05-17T02:45:17;100057.09;;;15.21;40.15
49825;BME280;35714;55.708;37.478;2023-05-17T02:47:45;100060.97;;;15.25;40.32
49825;BME280;35714;55.708;37.478;2023-05-17T02:50:11;100062.94;;;15.29;40.00
49825;BME280;35714;55.708;37.478;2023-05-17T02:52:37;100065.53;;;15.36;40.11
49825;BME280;35714;55.708;37.478;2023-05-17T02:55:05;100066.91;;;15.39;39.92
49825;BME280;35714;55.708;37.478;2023-05-17T02:57:31;100066.16;;;15.43;39.93
49825;BME280;35714;55.708;37.478;2023-05-17T02:59:57;100063.84;;;15.52;39.73
49825;BME280;35714;55.708;37.478;2023-05-17T03:02:23;100058.13;;;15.54;39.65
49825;BME280;35714;55.708;37.478;2023-05-17T03:04:49;100069.69;;;15.61;39.45
49825;BME280;35714;55.708;37.478;2023-05-17T03:07:15;100069.75;;;15.66;39.48
49825;BME280;35714;55.708;37.478;2023-05-17T03:09:42;100064.03;;;15.67;39.55
49825;BME280;35714;55.708;37.478;2023-05-17T03:12:08;100066.28;;;15.70;39.43
49825;BME280;35714;55.708;37.478;2023-05-17T03:14:34;100069.88;;;15.76;39.36
49825;BME280;35714;55.708;37.478;2023-05-17T03:17:01;100063.44;;;15.82;39.05
49825;BME280;35714;55.708;37.478;2023-05-17T03:19:27;100069.81;;;15.88;39.09
49825;BME280;35714;55.708;37.478;2023-05-17T03:21:53;100071.78;;;15.93;38.91
49825;BME280;35714;55.708;37.478;2023-05-17T03:24:20;100060.91;;;15.98;38.88
49825;BME280;35714;55.708;37.478;2023-05-17T03:26:45;100075.53;;;16.09;38.89
49825;BME280;35714;55.708;37.478;2023-05-17T03:29:12;100074.25;;;16.16;38.68
49825;BME280;35714;55.708;37.478;2023-05-17T03:31:40;100068.25;;;16.19;38.74
49825;BME280;35714;55.708;37.478;2023-05-17T03:34:06;100073.84;;;16.30;38.29
49825;BME280;35714;55.708;37.478;2023-05-17T03:36:33;100085.72;;;16.40;38.32
49825;BME280;35714;55.708;37.478;2023-05-17T03:39:00;100076.47;;;16.47;38.08
49825;BME280;35714;55.708;37.478;2023-05-17T03:41:27;100084.47;;;16.53;37.73
49825;BME280;35714;55.708;37.478;2023-05-17T03:43:52;100085.69;;;16.63;37.82
49825;BME280;35714;55.708;37.478;2023-05-17T03:46:20;100069.81;;;16.65;37.67
49825;BME280;35714;55.708;37.478;2023-05-17T03:48:47;100085.00;;;16.77;37.44
49825;BME280;35714;55.708;37.478;2023-05-17T03:51:12;100083.97;;;16.84;37.43
49825;BME280;35714;55.708;37.478;2023-05-17T03:53:39;100083.78;;;16.90;37.30
49825;BME280;35714;55.708;37.478;2023-05-17T03:56:08;100092.31;;;16.99;36.92
49825;BME280;35714;55.708;37.478;2023-05-17T03:58:35;100087.47;;;17.06;36.58
49825;BME280;35714;55.708;37.478;2023-05-17T04:01:02;100085.59;;;17.12;36.83
49825;BME280;35714;55.708;37.478;2023-05-17T04:03:29;100084.00;;;17.21;36.77
49825;BME280;35714;55.708;37.478;2023-05-17T04:06:05;100096.72;;;17.33;36.51
49825;BME280;35714;55.708;37.478;2023-05-17T04:08:33;100083.56;;;17.35;36.43
49825;BME280;35714;55.708;37.478;2023-05-17T04:10:59;100089.13;;;17.45;35.86
49825;BME280;35714;55.708;37.478;2023-05-17T04:13:35;100093.56;;;17.56;35.89
49825;BME280;35714;55.708;37.478;2023-05-17T04:16:02;100101.28;;;17.59;35.85
49825;BME280;35714;55.708;37.478;2023-05-17T04:18:28;100106.00;;;17.69;35.73
49825;BME280;35714;55.708;37.478;2023-05-17T04:20:54;100105.75;;;17.76;35.50
49825;BME280;35714;55.708;37.478;2023-05-17T04:23:20;100099.75;;;17.84;35.49
49825;BME280;35714;55.708;37.478;2023-05-17T04:25:47;100110.28;;;17.92;35.54
49825;BME280;35714;55.708;37.478;2023-05-17T04:28:13;100103.13;;;17.96;35.09
49825;BME280;35714;55.708;37.478;2023-05-17T04:30:42;100102.06;;;18.08;35.36
49825;BME280;35714;55.708;37.478;2023-05-17T04:33:08;100108.16;;;18.15;34.99
49825;BME280;35714;55.708;37.478;2023-05-17T04:35:34;100106.56;;;18.24;34.86
49825;BME280;35714;55.708;37.478;2023-05-17T04:38:00;100112.63;;;18.36;34.96
49825;BME280;35714;55.708;37.478;2023-05-17T04:40:26;100113.22;;;18.49;35.04
49825;BME280;35714;55.708;37.478;2023-05-17T04:42:52;100115.97;;;18.59;34.79
49825;BME280;35714;55.708;37.478;2023-05-17T04:45:19;100112.16;;;18.65;34.55
49825;BME280;35714;55.708;37.478;2023-05-17T04:47:44;100114.34;;;18.73;34.27
49825;BME280;35714;55.708;37.478;2023-05-17T04:50:10;100111.63;;;18.79;34.07
49825;BME280;35714;55.708;37.478;2023-05-17T04:52:37;100106.72;;;18.86;34.00
49825;BME280;35714;55.708;37.478;2023-05-17T04:55:03;100104.81;;;18.91;33.81
49825;BME280;35714;55.708;37.478;2023-05-17T04:57:30;100111.13;;;19.02;33.90
49825;BME280;35714;55.708;37.478;2023-05-17T04:59:59;100120.19;;;19.08;33.50
49825;BME280;35714;55.708;37.478;2023-05-17T05:02:25;100118.81;;;19.10;33.46
49825;BME280;35714;55.708;37.478;2023-05-17T05:04:51;100117.16;;;19.15;32.60
49825;BME280;35714;55.708;37.478;2023-05-17T05:07:17;100117.72;;;19.17;32.59
49825;BME280;35714;55.708;37.478;2023-05-17T05:09:44;100108.09;;;19.24;32.59
49825;BME280;35714;55.708;37.478;2023-05-17T05:12:12;100108.38;;;19.23;32.46
49825;BME280;35714;55.708;37.478;2023-05-17T05:14:38;100111.09;;;19.33;32.84
49825;BME280;35714;55.708;37.478;2023-05-17T05:17:04;100111.09;;;19.43;32.26
49825;BME280;35714;55.708;37.478;2023-05-17T05:19:30;100107.53;;;19.48;32.69
49825;BME280;35714;55.708;37.478;2023-05-17T05:21:57;100105.00;;;19.57;32.26
49825;BME280;35714;55.708;37.478;2023-05-17T05:24:23;100100.34;;;19.62;32.20
49825;BME280;35714;55.708;37.478;2023-05-17T05:26:49;100111.06;;;19.79;32.40
49825;BME280;35714;55.708;37.478;2023-05-17T05:29:17;100115.44;;;19.91;32.27
49825;BME280;35714;55.708;37.478;2023-05-17T05:31:43;100113.78;;;19.90;31.23
49825;BME280;35714;55.708;37.478;2023-05-17T05:34:10;100107.72;;;19.93;31.58
49825;BME280;35714;55.708;37.478;2023-05-17T05:36:35;100114.34;;;19.92;31.52
49825;BME280;35714;55.708;37.478;2023-05-17T05:39:01;100119.28;;;19.95;31.38
49825;BME280;35714;55.708;37.478;2023-05-17T05:41:29;100121.44;;;19.98;31.39
49825;BME280;35714;55.708;37.478;2023-05-17T05:43:55;100114.81;;;20.04;31.34
49825;BME280;35714;55.708;37.478;2023-05-17T05:46:21;100115.34;;;20.11;31.63
49825;BME280;35714;55.708;37.478;2023-05-17T05:48:47;100116.13;;;20.22;31.54
49825;BME280;35714;55.708;37.478;2023-05-17T05:51:13;100114.69;;;20.35;31.53
49825;BME280;35714;55.708;37.478;2023-05-17T05:53:41;100113.00;;;20.44;31.42
49825;BME280;35714;55.708;37.478;2023-05-17T05:56:07;100118.19;;;20.51;30.93
49825;BME280;35714;55.708;37.478;2023-05-17T05:58:34;100119.00;;;20.51;30.84
49825;BME280;35714;55.708;37.478;2023-05-17T06:01:01;100112.97;;;20.49;30.46
49825;BME280;35714;55.708;37.478;2023-05-17T06:03:28;100120.09;;;20.55;30.83
49825;BME280;35714;55.708;37.478;2023-05-17T06:05:54;100108.50;;;20.59;29.76
49825;BME280;35714;55.708;37.478;2023-05-17T06:08:19;100114.53;;;20.61;29.86
49825;BME280;35714;55.708;37.478;2023-05-17T06:10:46;100120.91;;;20.56;29.92
49825;BME280;35714;55.708;37.478;2023-05-17T06:13:11;100121.47;;;20.53;30.09
49825;BME280;35714;55.708;37.478;2023-05-17T06:15:39;100124.50;;;20.51;29.40
49825;BME280;35714;55.708;37.478;2023-05-17T06:18:05;100121.78;;;20.46;29.32
49825;BME280;35714;55.708;37.478;2023-05-17T06:20:31;100126.25;;;20.42;29.52
49825;BME280;35714;55.708;37.478;2023-05-17T06:22:56;100135.53;;;20.51;29.34
49825;BME280;35714;55.708;37.478;2023-05-17T06:25:22;100128.06;;;20.57;29.15
49825;BME280;35714;55.708;37.478;2023-05-17T06:27:48;100132.19;;;20.65;29.12
49825;BME280;35714;55.708;37.478;2023-05-17T06:30:13;100125.50;;;20.76;28.68
49825;BME280;35714;55.708;37.478;2023-05-17T06:32:39;100122.69;;;20.86;28.56
49825;BME280;35714;55.708;37.478;2023-05-17T06:35:06;100134.41;;;21.02;28.51
49825;BME280;35714;55.708;37.478;2023-05-17T06:37:32;100127.94;;;21.22;28.42
49825;BME280;35714;55.708;37.478;2023-05-17T06:40:03;100128.25;;;21.45;27.93
49825;BME280;35714;55.708;37.478;2023-05-17T06:42:33;100129.19;;;21.65;28.24
49825;BME280;35714;55.708;37.478;2023-05-17T06:44:59;100124.34;;;22.05;27.78
49825;BME280;35714;55.708;37.478;2023-05-17T06:47:25;100127.13;;;22.48;27.13
49825;BME280;35714;55.708;37.478;2023-05-17T06:49:51;100133.19;;;22.88;26.23
49825;BME280;35714;55.708;37.478;2023-05-17T06:52:17;100134.81;;;23.27;25.73
49825;BME280;35714;55.708;37.478;2023-05-17T06:54:43;100136.97;;;23.63;25.53
49825;BME280;35714;55.708;37.478;2023-05-17T06:57:08;100127.69;;;24.01;24.87
49825;BME280;35714;55.708;37.478;2023-05-17T06:59:35;100136.19;;;24.32;24.17
49825;BME280;35714;55.708;37.478;2023-05-17T07:02:01;100130.81;;;24.49;24.04
49825;BME280;35714;55.708;37.478;2023-05-17T07:04:27;100124.59;;;24.80;24.40
49825;BME280;35714;55.708;37.478;2023-05-17T07:06:53;100141.72;;;25.19;23.43
49825;BME280;35714;55.708;37.478;2023-05-17T07:09:20;100129.50;;;25.43;22.29
49825;BME280;35714;55.708;37.478;2023-05-17T07:11:47;100133.13;;;25.52;21.80
49825;BME280;35714;55.708;37.478;2023-05-17T07:14:12;100132.81;;;25.53;22.19
49825;BME280;35714;55.708;37.478;2023-05-17T07:16:38;100138.78;;;25.69;22.01
49825;BME280;35714;55.708;37.478;2023-05-17T07:19:04;100118.44;;;25.91;21.13
49825;BME280;35714;55.708;37.478;2023-05-17T07:21:31;100129.53;;;26.23;20.62
49825;BME280;35714;55.708;37.478;2023-05-17T07:23:56;100121.88;;;26.28;19.77
49825;BME280;35714;55.708;37.478;2023-05-17T07:26:22;100133.03;;;26.46;20.03
49825;BME280;35714;55.708;37.478;2023-05-17T07:28:49;100130.34;;;26.23;19.88
49825;BME280;35714;55.708;37.478;2023-05-17T07:31:15;100124.72;;;26.72;19.67
49825;BME280;35714;55.708;37.478;2023-05-17T07:33:41;100128.81;;;26.75;19.46
49825;BME280;35714;55.708;37.478;2023-05-17T07:36:07;100136.03;;;26.93;19.37
49825;BME280;35714;55.708;37.478;2023-05-17T07:38:33;100133.41;;;26.88;19.96
49825;BME280;35714;55.708;37.478;2023-05-17T07:41:02;100141.25;;;27.12;19.30
49825;BME280;35714;55.708;37.478;2023-05-17T07:43:28;100122.56;;;27.13;19.00
49825;BME280;35714;55.708;37.478;2023-05-17T07:45:54;100124.22;;;27.14;18.84
49825;BME280;35714;55.708;37.478;2023-05-17T07:48:20;100121.19;;;27.54;18.95
49825;BME280;35714;55.708;37.478;2023-05-17T07:50:46;100118.81;;;27.82;18.85
49825;BME280;35714;55.708;37.478;2023-05-17T07:53:13;100116.34;;;28.49;17.43
49825;BME280;35714;55.708;37.478;2023-05-17T07:55:39;100123.28;;;28.43;17.81
49825;BME280;35714;55.708;37.478;2023-05-17T07:58:04;100144.38;;;28.23;17.63
49825;BME280;35714;55.708;37.478;2023-05-17T08:00:30;100115.63;;;28.31;18.16
49825;BME280;35714;55.708;37.478;2023-05-17T08:02:56;100129.94;;;28.51;18.09
49825;BME280;35714;55.708;37.478;2023-05-17T08:05:22;100118.28;;;28.78;17.54
49825;BME280;35714;55.708;37.478;2023-05-17T08:07:47;100119.13;;;29.12;17.12
49825;BME280;35714;55.708;37.478;2023-05-17T08:10:14;100112.03;;;29.48;17.08
49825;BME280;35714;55.708;37.478;2023-05-17T08:12:39;100120.53;;;29.85;16.29
49825;BME280;35714;55.708;37.478;2023-05-17T08:15:05;100117.00;;;30.01;16.32
49825;BME280;35714;55.708;37.478;2023-05-17T08:17:32;100127.50;;;30.29;16.00
49825;BME280;35714;55.708;37.478;2023-05-17T08:19:58;100114.91;;;30.10;16.27
49825;BME280;35714;55.708;37.478;2023-05-17T08:22:24;100118.31;;;30.03;16.79
49825;BME280;35714;55.708;37.478;2023-05-17T08:24:50;100118.97;;;30.37;16.08
49825;BME280;35714;55.708;37.478;2023-05-17T08:27:16;100103.88;;;30.67;15.82
49825;BME280;35714;55.708;37.478;2023-05-17T08:29:42;100107.59;;;30.83;15.74
49825;BME280;35714;55.708;37.478;2023-05-17T08:32:08;100105.28;;;31.29;15.57
49825;BME280;35714;55.708;37.478;2023-05-17T08:34:33;100114.59;;;31.62;14.64
49825;BME280;35714;55.708;37.478;2023-05-17T08:36:59;100120.13;;;31.30;14.87
49825;BME280;35714;55.708;37.478;2023-05-17T08:39:25;100114.81;;;31.12;14.94
49825;BME280;35714;55.708;37.478;2023-05-17T08:41:51;100096.56;;;30.90;15.27
49825;BME280;35714;55.708;37.478;2023-05-17T08:44:18;100111.84;;;30.93;15.31
49825;BME280;35714;55.708;37.478;2023-05-17T08:46:45;100101.06;;;30.79;15.59
49825;BME280;35714;55.708;37.478;2023-05-17T08:49:21;100120.00;;;31.26;15.21
49825;BME280;35714;55.708;37.478;2023-05-17T08:51:48;100114.47;;;31.14;15.10
49825;BME280;35714;55.708;37.478;2023-05-17T08:54:14;100109.00;;;31.34;15.38
49825;BME280;35714;55.708;37.478;2023-05-17T08:56:41;100108.91;;;31.58;15.16
49825;BME280;35714;55.708;37.478;2023-05-17T08:59:08;100108.97;;;31.78;14.60
49825;BME280;35714;55.708;37.478;2023-05-17T09:01:42;100119.28;;;32.06;14.67
49825;BME280;35714;55.708;37.478;2023-05-17T09:04:08;100121.88;;;32.30;14.18
49825;BME280;35714;55.708;37.478;2023-05-17T09:06:34;100112.56;;;31.94;14.36
49825;BME280;35714;55.708;37.478;2023-05-17T09:09:00;100109.06;;;31.65;14.87
49825;BME280;35714;55.708;37.478;2023-05-17T09:11:28;100101.00;;;31.96;14.78
49825;BME280;35714;55.708;37.478;2023-05-17T09:14:04;100116.38;;;32.89;14.07
49825;BME280;35714;55.708;37.478;2023-05-17T09:16:32;100098.19;;;33.22;13.23
49825;BME280;35714;55.708;37.478;2023-05-17T09:19:00;100098.31;;;33.09;13.83
49825;BME280;35714;55.708;37.478;2023-05-17T09:21:27;100104.16;;;33.01;13.63
49825;BME280;35714;55.708;37.478;2023-05-17T09:23:54;100086.06;;;32.79;13.40
49825;BME280;35714;55.708;37.478;2023-05-17T09:26:20;100107.25;;;32.76;13.59
49825;BME280;35714;55.708;37.478;2023-05-17T09:28:48;100104.94;;;32.62;14.24
49825;BME280;35714;55.708;37.478;2023-05-17T09:31:16;100099.44;;;32.66;13.98
49825;BME280;35714;55.708;37.478;2023-05-17T09:33:46;100098.69;;;32.69;13.95
49825;BME280;35714;55.708;37.478;2023-05-17T09:36:22;100106.06;;;32.22;14.27
49825;BME280;35714;55.708;37.478;2023-05-17T09:39:02;100090.28;;;32.33;14.62
49825;BME280;35714;55.708;37.478;2023-05-17T09:41:40;100085.75;;;32.29;14.56
49825;BME280;35714;55.708;37.478;2023-05-17T09:44:09;100078.44;;;32.24;14.24
49825;BME280;35714;55.708;37.478;2023-05-17T09:46:37;100086.00;;;32.40;14.72
49825;BME280;35714;55.708;37.478;2023-05-17T09:49:06;100088.28;;;32.69;14.33
49825;BME280;35714;55.708;37.478;2023-05-17T09:54:00;100083.59;;;33.16;13.36
49825;BME280;35714;55.708;37.478;2023-05-17T09:56:29;100092.97;;;33.04;13.34
49825;BME280;35714;55.708;37.478;2023-05-17T09:58:56;100085.31;;;33.21;12.86
49825;BME280;35714;55.708;37.478;2023-05-17T10:01:27;100088.34;;;32.92;13.39
49825;BME280;35714;55.708;37.478;2023-05-17T10:03:53;100071.13;;;32.94;13.16
49825;BME280;35714;55.708;37.478;2023-05-17T10:06:24;100080.31;;;33.57;13.30
49825;BME280;35714;55.708;37.478;2023-05-17T10:08:56;100080.38;;;34.33;12.57
49825;BME280;35714;55.708;37.478;2023-05-17T10:11:29;100092.41;;;34.61;12.47
49825;BME280;35714;55.708;37.478;2023-05-17T10:16:37;100078.25;;;34.27;12.38
49825;BME280;35714;55.708;37.478;2023-05-17T10:19:04;100077.88;;;34.59;12.70
49825;BME280;35714;55.708;37.478;2023-05-17T10:21:30;100076.47;;;35.06;12.10
49825;BME280;35714;55.708;37.478;2023-05-17T10:24:01;100073.50;;;34.92;12.35
49825;BME280;35714;55.708;37.478;2023-05-17T10:26:27;100060.50;;;34.83;11.99
49825;BME280;35714;55.708;37.478;2023-05-17T10:28:57;100063.75;;;34.85;12.55
49825;BME280;35714;55.708;37.478;2023-05-17T10:31:32;100061.03;;;35.34;12.75
49825;BME280;35714;55.708;37.478;2023-05-17T10:34:03;100061.34;;;35.70;12.13
49825;BME280;35714;55.708;37.478;2023-05-17T10:36:30;100056.53;;;35.70;11.41
49825;BME280;35714;55.708;37.478;2023-05-17T10:38:57;100068.69;;;35.30;11.85
49825;BME280;35714;55.708;37.478;2023-05-17T10:41:28;100057.22;;;35.15;12.42
49825;BME280;35714;55.708;37.478;2023-05-17T10:43:55;100061.28;;;35.21;11.41
49825;BME280;35714;55.708;37.478;2023-05-17T10:46:22;100055.41;;;35.34;11.07
49825;BME280;35714;55.708;37.478;2023-05-17T10:48:52;100068.00;;;35.06;11.23
49825;BME280;35714;55.708;37.478;2023-05-17T10:51:24;100059.88;;;34.67;11.95
49825;BME280;35714;55.708;37.478;2023-05-17T10:56:39;100044.50;;;34.95;12.16
49825;BME280;35714;55.708;37.478;2023-05-17T10:59:18;100053.91;;;35.44;12.06
49825;BME280;35714;55.708;37.478;2023-05-17T11:02:02;100048.69;;;35.94;11.52
49825;BME280;35714;55.708;37.478;2023-05-17T11:04:46;100047.22;;;36.22;11.53
49825;BME280;35714;55.708;37.478;2023-05-17T11:14:53;100033.09;;;37.31;10.30
49825;BME280;35714;55.708;37.478;2023-05-17T11:17:23;100033.94;;;37.50;10.75
49825;BME280;35714;55.708;37.478;2023-05-17T11:22:17;100023.41;;;37.47;10.07
49825;BME280;35714;55.708;37.478;2023-05-17T11:24:43;100038.69;;;36.92;10.13
49825;BME280;35714;55.708;37.478;2023-05-17T11:27:12;100036.00;;;36.29;10.97
49825;BME280;35714;55.708;37.478;2023-05-17T11:29:41;100025.31;;;35.45;11.36
49825;BME280;35714;55.708;37.478;2023-05-17T11:32:11;100034.19;;;35.06;11.31
49825;BME280;35714;55.708;37.478;2023-05-17T11:34:37;100021.31;;;35.09;11.32
49825;BME280;35714;55.708;37.478;2023-05-17T11:37:03;100024.63;;;35.18;11.74
49825;BME280;35714;55.708;37.478;2023-05-17T11:39:30;100008.53;;;35.18;11.96
49825;BME280;35714;55.708;37.478;2023-05-17T11:41:56;100014.34;;;35.88;11.55
49825;BME280;35714;55.708;37.478;2023-05-17T11:44:23;100017.53;;;36.53;10.81
49825;BME280;35714;55.708;37.478;2023-05-17T11:47:00;100019.16;;;36.58;10.88
49825;BME280;35714;55.708;37.478;2023-05-17T11:49:29;100003.84;;;36.62;10.91
49825;BME280;35714;55.708;37.478;2023-05-17T11:51:55;100002.31;;;36.83;10.51
49825;BME280;35714;55.708;37.478;2023-05-17T11:54:25;99993.91;;;37.30;10.34
49825;BME280;35714;55.708;37.478;2023-05-17T11:56:54;100009.59;;;38.06;10.48
49825;BME280;35714;55.708;37.478;2023-05-17T11:59:21;100002.09;;;38.70;9.50
49825;BME280;35714;55.708;37.478;2023-05-17T12:01:49;99996.47;;;38.56;9.33
49825;BME280;35714;55.708;37.478;2023-05-17T12:04:25;100004.81;;;37.89;9.45
49825;BME280;35714;55.708;37.478;2023-05-17T12:06:53;99995.53;;;37.42;9.52
49825;BME280;35714;55.708;37.478;2023-05-17T12:09:19;99995.06;;;36.93;9.90
49825;BME280;35714;55.708;37.478;2023-05-17T12:11:46;99986.09;;;36.69;10.68
49825;BME280;35714;55.708;37.478;2023-05-17T12:14:18;99994.28;;;36.99;10.31
49825;BME280;35714;55.708;37.478;2023-05-17T12:16:50;99981.34;;;36.95;10.12
49825;BME280;35714;55.708;37.478;2023-05-17T12:19:18;99972.09;;;37.23;10.14
49825;BME280;35714;55.708;37.478;2023-05-17T12:21:44;99956.66;;;37.85;10.25
49825;BME280;35714;55.708;37.478;2023-05-17T12:24:11;99961.88;;;38.16;9.36
49825;BME280;35714;55.708;37.478;2023-05-17T12:26:42;99960.34;;;37.86;9.61
49825;BME280;35714;55.708;37.478;2023-05-17T12:29:12;99971.69;;;37.28;10.07
49825;BME280;35714;55.708;37.478;2023-05-17T12:31:46;99962.78;;;37.12;10.18
49825;BME280;35714;55.708;37.478;2023-05-17T12:34:12;99961.56;;;37.20;10.10
49825;BME280;35714;55.708;37.478;2023-05-17T12:36:41;99966.84;;;37.25;9.95
49825;BME280;35714;55.708;37.478;2023-05-17T12:39:08;99961.16;;;36.86;10.03
49825;BME280;35714;55.708;37.478;2023-05-17T12:41:36;99956.28;;;36.86;10.14
49825;BME280;35714;55.708;37.478;2023-05-17T12:44:04;99950.66;;;37.58;10.01
49825;BME280;35714;55.708;37.478;2023-05-17T12:46:31;99957.84;;;38.02;9.35
49825;BME280;35714;55.708;37.478;2023-05-17T12:49:04;99949.59;;;38.40;9.05
49825;BME280;35714;55.708;37.478;2023-05-17T12:51:41;99951.38;;;38.87;10.02
49825;BME280;35714;55.708;37.478;2023-05-17T12:54:07;99956.41;;;39.21;9.12
49825;BME280;35714;55.708;37.478;2023-05-17T12:56:33;99952.31;;;38.69;8.96
49825;BME280;35714;55.708;37.478;2023-05-17T12:59:03;99947.38;;;37.78;9.08
49825;BME280;35714;55.708;37.478;2023-05-17T13:01:47;99940.16;;;37.33;9.38
49825;BME280;35714;55.708;37.478;2023-05-17T13:04:14;99936.94;;;37.24;9.85
49825;BME280;35714;55.708;37.478;2023-05-17T13:09:17;99936.91;;;36.95;9.69
49825;BME280;35714;55.708;37.478;2023-05-17T13:11:54;99933.69;;;36.86;9.84